sensor_id;sensor_type;location;lat;lon;timestamp;temperature;humidity
28175;SHT30;59417;44.788;10.334;2022-11-21T00:00:47;8.93;77.53
28175;SHT30;59417;44.788;10.334;2022-11-21T00:03:14;8.94;77.05
28175;SHT30;59417;44.788;10.334;2022-11-21T00:05:43;9.10;75.49
28175;SHT30;59417;44.788;10.334;2022-11-21T00:08:13;8.87;77.29
28175;SHT30;59417;44.788;10.334;2022-11-21T00:10:39;8.77;77.97
28175;SHT30;59417;44.788;10.334;2022-11-21T00:13:06;8.77;78.05
28175;SHT30;59417;44.788;10.334;2022-11-21T00:15:33;8.70;77.60
28175;SHT30;59417;44.788;10.334;2022-11-21T00:18:03;8.76;77.24
28175;SHT30;59417;44.788;10.334;2022-11-21T00:20:30;8.81;76.85
28175;SHT30;59417;44.788;10.334;2022-11-21T00:22:56;8.77;76.76
28175;SHT30;59417;44.788;10.334;2022-11-21T00:25:21;8.73;76.69
28175;SHT30;59417;44.788;10.334;2022-11-21T00:27:47;8.76;76.64
28175;SHT30;59417;44.788;10.334;2022-11-21T00:30:13;8.66;76.64
28175;SHT30;59417;44.788;10.334;2022-11-21T00:32:40;8.59;76.72
28175;SHT30;59417;44.788;10.334;2022-11-21T00:35:06;8.59;76.38
28175;SHT30;59417;44.788;10.334;2022-11-21T00:37:32;8.60;76.60
28175;SHT30;59417;44.788;10.334;2022-11-21T00:39:59;8.50;76.41
28175;SHT30;59417;44.788;10.334;2022-11-21T00:42:25;8.33;76.75
28175;SHT30;59417;44.788;10.334;2022-11-21T00:44:50;8.15;77.29
28175;SHT30;59417;44.788;10.334;2022-11-21T00:47:16;8.20;77.72
28175;SHT30;59417;44.788;10.334;2022-11-21T00:49:42;8.25;77.83
28175;SHT30;59417;44.788;10.334;2022-11-21T00:52:08;8.36;77.31
28175;SHT30;59417;44.788;10.334;2022-11-21T00:54:34;8.35;76.96
28175;SHT30;59417;44.788;10.334;2022-11-21T00:57:00;8.22;77.31
28175;SHT30;59417;44.788;10.334;2022-11-21T00:59:25;8.29;77.06
28175;SHT30;59417;44.788;10.334;2022-11-21T01:01:51;8.24;77.05
28175;SHT30;59417;44.788;10.334;2022-11-21T01:04:17;8.31;76.64
28175;SHT30;59417;44.788;10.334;2022-11-21T01:06:43;8.31;76.49
28175;SHT30;59417;44.788;10.334;2022-11-21T01:09:09;8.18;76.31
28175;SHT30;59417;44.788;10.334;2022-11-21T01:11:35;7.98;77.12
28175;SHT30;59417;44.788;10.334;2022-11-21T01:14:01;7.86;77.90
28175;SHT30;59417;44.788;10.334;2022-11-21T01:16:28;7.78;78.27
28175;SHT30;59417;44.788;10.334;2022-11-21T01:18:54;7.87;78.41
28175;SHT30;59417;44.788;10.334;2022-11-21T01:21:28;7.91;78.26
28175;SHT30;59417;44.788;10.334;2022-11-21T01:23:55;8.05;77.38
28175;SHT30;59417;44.788;10.334;2022-11-21T01:26:26;8.20;76.78
28175;SHT30;59417;44.788;10.334;2022-11-21T01:28:52;8.29;75.77
28175;SHT30;59417;44.788;10.334;2022-11-21T01:31:21;8.32;75.51
28175;SHT30;59417;44.788;10.334;2022-11-21T01:33:48;8.24;75.92
28175;SHT30;59417;44.788;10.334;2022-11-21T01:36:20;8.14;76.37
28175;SHT30;59417;44.788;10.334;2022-11-21T01:38:54;8.18;76.30
28175;SHT30;59417;44.788;10.334;2022-11-21T01:41:31;8.24;75.55
28175;SHT30;59417;44.788;10.334;2022-11-21T01:44:19;8.14;75.79
28175;SHT30;59417;44.788;10.334;2022-11-21T01:46:46;7.88;76.25
28175;SHT30;59417;44.788;10.334;2022-11-21T01:49:22;7.81;76.94
28175;SHT30;59417;44.788;10.334;2022-11-21T02:00:09;7.95;76.70
28175;SHT30;59417;44.788;10.334;2022-11-21T02:02:41;8.01;76.21
28175;SHT30;59417;44.788;10.334;2022-11-21T02:05:12;7.95;76.37
28175;SHT30;59417;44.788;10.334;2022-11-21T02:07:42;8.07;76.24
28175;SHT30;59417;44.788;10.334;2022-11-21T02:10:09;8.10;75.76
28175;SHT30;59417;44.788;10.334;2022-11-21T02:12:52;8.08;75.86
28175;SHT30;59417;44.788;10.334;2022-11-21T02:15:21;8.04;75.95
28175;SHT30;59417;44.788;10.334;2022-11-21T02:17:47;8.05;75.83
28175;SHT30;59417;44.788;10.334;2022-11-21T02:20:15;8.14;75.34
28175;SHT30;59417;44.788;10.334;2022-11-21T02:25:17;7.87;75.53
28175;SHT30;59417;44.788;10.334;2022-11-21T02:27:45;7.74;75.81
28175;SHT30;59417;44.788;10.334;2022-11-21T02:30:11;7.61;76.51
28175;SHT30;59417;44.788;10.334;2022-11-21T02:32:40;7.68;76.44
28175;SHT30;59417;44.788;10.334;2022-11-21T02:35:07;7.61;76.82
28175;SHT30;59417;44.788;10.334;2022-11-21T02:37:35;7.67;76.26
28175;SHT30;59417;44.788;10.334;2022-11-21T02:40:08;7.73;75.82
28175;SHT30;59417;44.788;10.334;2022-11-21T02:45:37;7.88;74.68
28175;SHT30;59417;44.788;10.334;2022-11-21T02:48:04;7.64;75.54
28175;SHT30;59417;44.788;10.334;2022-11-21T02:50:32;7.53;76.21
28175;SHT30;59417;44.788;10.334;2022-11-21T02:52:59;7.43;76.18
28175;SHT30;59417;44.788;10.334;2022-11-21T02:55:25;7.40;76.49
28175;SHT30;59417;44.788;10.334;2022-11-21T02:57:52;7.40;76.69
28175;SHT30;59417;44.788;10.334;2022-11-21T03:00:18;7.50;76.55
28175;SHT30;59417;44.788;10.334;2022-11-21T03:02:44;7.54;76.36
28175;SHT30;59417;44.788;10.334;2022-11-21T03:05:12;7.61;76.08
28175;SHT30;59417;44.788;10.334;2022-11-21T03:07:38;7.68;75.53
28175;SHT30;59417;44.788;10.334;2022-11-21T03:10:04;7.59;75.51
28175;SHT30;59417;44.788;10.334;2022-11-21T03:12:30;7.50;75.24
28175;SHT30;59417;44.788;10.334;2022-11-21T03:14:56;7.51;75.60
28175;SHT30;59417;44.788;10.334;2022-11-21T03:17:21;7.50;75.81
28175;SHT30;59417;44.788;10.334;2022-11-21T03:19:47;7.59;75.24
28175;SHT30;59417;44.788;10.334;2022-11-21T03:22:14;7.53;75.44
28175;SHT30;59417;44.788;10.334;2022-11-21T03:24:39;7.40;75.70
28175;SHT30;59417;44.788;10.334;2022-11-21T03:27:05;7.22;75.98
28175;SHT30;59417;44.788;10.334;2022-11-21T03:29:31;7.25;75.88
28175;SHT30;59417;44.788;10.334;2022-11-21T03:31:57;7.23;75.69
28175;SHT30;59417;44.788;10.334;2022-11-21T03:34:23;7.26;75.70
28175;SHT30;59417;44.788;10.334;2022-11-21T03:36:49;7.19;75.96
28175;SHT30;59417;44.788;10.334;2022-11-21T03:39:16;7.15;75.85
28175;SHT30;59417;44.788;10.334;2022-11-21T03:41:41;7.19;75.84
28175;SHT30;59417;44.788;10.334;2022-11-21T03:44:09;7.12;75.92
28175;SHT30;59417;44.788;10.334;2022-11-21T03:46:38;7.09;76.13
28175;SHT30;59417;44.788;10.334;2022-11-21T03:49:04;7.01;76.73
28175;SHT30;59417;44.788;10.334;2022-11-21T03:51:31;7.02;76.92
28175;SHT30;59417;44.788;10.334;2022-11-21T03:53:57;7.16;76.58
28175;SHT30;59417;44.788;10.334;2022-11-21T03:56:23;7.22;76.13
28175;SHT30;59417;44.788;10.334;2022-11-21T03:58:50;7.25;75.94
28175;SHT30;59417;44.788;10.334;2022-11-21T04:01:16;7.14;75.84
28175;SHT30;59417;44.788;10.334;2022-11-21T04:03:42;7.11;76.10
28175;SHT30;59417;44.788;10.334;2022-11-21T04:06:09;7.11;76.07
28175;SHT30;59417;44.788;10.334;2022-11-21T04:08:35;7.11;76.53
28175;SHT30;59417;44.788;10.334;2022-11-21T04:11:01;7.18;76.64
28175;SHT30;59417;44.788;10.334;2022-11-21T04:13:28;6.96;76.75
28175;SHT30;59417;44.788;10.334;2022-11-21T04:15:53;6.91;77.32
28175;SHT30;59417;44.788;10.334;2022-11-21T04:18:19;6.99;77.13
28175;SHT30;59417;44.788;10.334;2022-11-21T04:20:46;6.88;77.17
28175;SHT30;59417;44.788;10.334;2022-11-21T04:23:12;6.87;77.34
28175;SHT30;59417;44.788;10.334;2022-11-21T04:25:39;6.96;77.36
28175;SHT30;59417;44.788;10.334;2022-11-21T04:28:05;7.18;75.68
28175;SHT30;59417;44.788;10.334;2022-11-21T04:30:32;7.11;76.20
28175;SHT30;59417;44.788;10.334;2022-11-21T04:32:58;7.16;75.84
28175;SHT30;59417;44.788;10.334;2022-11-21T04:35:25;7.08;75.95
28175;SHT30;59417;44.788;10.334;2022-11-21T04:37:52;7.09;75.33
28175;SHT30;59417;44.788;10.334;2022-11-21T04:40:18;6.99;75.15
28175;SHT30;59417;44.788;10.334;2022-11-21T04:42:45;6.65;76.39
28175;SHT30;59417;44.788;10.334;2022-11-21T04:45:12;6.65;75.69
28175;SHT30;59417;44.788;10.334;2022-11-21T04:47:39;6.58;76.23
28175;SHT30;59417;44.788;10.334;2022-11-21T04:50:06;6.58;75.35
28175;SHT30;59417;44.788;10.334;2022-11-21T04:52:32;6.51;75.56
28175;SHT30;59417;44.788;10.334;2022-11-21T04:54:58;6.48;75.89
28175;SHT30;59417;44.788;10.334;2022-11-21T04:57:26;6.47;75.68
28175;SHT30;59417;44.788;10.334;2022-11-21T04:59:53;6.48;75.40
28175;SHT30;59417;44.788;10.334;2022-11-21T05:02:18;6.51;75.18
28175;SHT30;59417;44.788;10.334;2022-11-21T05:04:44;6.44;75.32
28175;SHT30;59417;44.788;10.334;2022-11-21T05:07:10;6.43;75.68
28175;SHT30;59417;44.788;10.334;2022-11-21T05:09:36;6.36;76.08
28175;SHT30;59417;44.788;10.334;2022-11-21T05:12:02;6.21;76.73
28175;SHT30;59417;44.788;10.334;2022-11-21T05:14:46;6.12;77.01
28175;SHT30;59417;44.788;10.334;2022-11-21T05:17:12;6.17;77.11
28175;SHT30;59417;44.788;10.334;2022-11-21T05:19:37;6.12;77.18
28175;SHT30;59417;44.788;10.334;2022-11-21T05:22:03;6.26;76.88
28175;SHT30;59417;44.788;10.334;2022-11-21T05:24:29;6.29;76.33
28175;SHT30;59417;44.788;10.334;2022-11-21T05:26:55;6.34;76.19
28175;SHT30;59417;44.788;10.334;2022-11-21T05:29:20;6.31;76.23
28175;SHT30;59417;44.788;10.334;2022-11-21T05:31:46;6.24;76.31
28175;SHT30;59417;44.788;10.334;2022-11-21T05:34:12;6.21;76.14
28175;SHT30;59417;44.788;10.334;2022-11-21T05:36:38;6.20;75.61
28175;SHT30;59417;44.788;10.334;2022-11-21T05:39:04;6.20;75.78
28175;SHT30;59417;44.788;10.334;2022-11-21T05:41:30;6.23;75.59
28175;SHT30;59417;44.788;10.334;2022-11-21T05:43:56;6.30;75.62
28175;SHT30;59417;44.788;10.334;2022-11-21T05:46:24;6.30;75.66
28175;SHT30;59417;44.788;10.334;2022-11-21T05:48:51;6.41;75.26
28175;SHT30;59417;44.788;10.334;2022-11-21T05:51:17;6.31;75.41
28175;SHT30;59417;44.788;10.334;2022-11-21T05:53:45;6.30;75.53
28175;SHT30;59417;44.788;10.334;2022-11-21T05:56:13;6.29;75.26
28175;SHT30;59417;44.788;10.334;2022-11-21T05:58:39;6.27;75.47
28175;SHT30;59417;44.788;10.334;2022-11-21T06:01:06;6.36;75.30
28175;SHT30;59417;44.788;10.334;2022-11-21T06:03:35;6.36;75.39
28175;SHT30;59417;44.788;10.334;2022-11-21T06:06:09;6.47;74.40
28175;SHT30;59417;44.788;10.334;2022-11-21T06:08:40;6.38;74.90
28175;SHT30;59417;44.788;10.334;2022-11-21T06:11:08;6.27;75.62
28175;SHT30;59417;44.788;10.334;2022-11-21T06:13:34;6.27;75.88
28175;SHT30;59417;44.788;10.334;2022-11-21T06:16:14;6.27;75.93
28175;SHT30;59417;44.788;10.334;2022-11-21T06:18:45;6.34;75.62
28175;SHT30;59417;44.788;10.334;2022-11-21T06:21:17;6.26;75.71
28175;SHT30;59417;44.788;10.334;2022-11-21T06:23:43;6.37;75.44
28175;SHT30;59417;44.788;10.334;2022-11-21T06:26:15;6.38;74.83
28175;SHT30;59417;44.788;10.334;2022-11-21T06:28:42;6.23;75.07
28175;SHT30;59417;44.788;10.334;2022-11-21T06:31:12;6.27;74.65
28175;SHT30;59417;44.788;10.334;2022-11-21T06:33:39;6.37;74.34
28175;SHT30;59417;44.788;10.334;2022-11-21T06:36:28;6.37;73.94
28175;SHT30;59417;44.788;10.334;2022-11-21T06:38:55;6.12;75.16
28175;SHT30;59417;44.788;10.334;2022-11-21T06:41:23;6.14;75.15
28175;SHT30;59417;44.788;10.334;2022-11-21T06:43:49;6.20;74.47
28175;SHT30;59417;44.788;10.334;2022-11-21T06:46:15;6.33;74.03
28175;SHT30;59417;44.788;10.334;2022-11-21T06:48:42;6.33;74.22
28175;SHT30;59417;44.788;10.334;2022-11-21T06:51:12;6.38;74.05
28175;SHT30;59417;44.788;10.334;2022-11-21T06:53:40;6.41;73.84
28175;SHT30;59417;44.788;10.334;2022-11-21T06:56:06;6.29;74.61
28175;SHT30;59417;44.788;10.334;2022-11-21T06:58:32;6.23;75.36
28175;SHT30;59417;44.788;10.334;2022-11-21T07:01:08;6.14;75.78
28175;SHT30;59417;44.788;10.334;2022-11-21T07:03:40;6.09;75.86
28175;SHT30;59417;44.788;10.334;2022-11-21T07:06:05;6.06;76.24
28175;SHT30;59417;44.788;10.334;2022-11-21T07:08:33;6.14;76.63
28175;SHT30;59417;44.788;10.334;2022-11-21T07:11:10;6.16;76.37
28175;SHT30;59417;44.788;10.334;2022-11-21T07:13:36;6.17;76.12
28175;SHT30;59417;44.788;10.334;2022-11-21T07:16:04;6.27;75.54
28175;SHT30;59417;44.788;10.334;2022-11-21T07:18:30;6.37;75.37
28175;SHT30;59417;44.788;10.334;2022-11-21T07:21:00;6.47;75.43
28175;SHT30;59417;44.788;10.334;2022-11-21T07:23:26;6.53;75.28
28175;SHT30;59417;44.788;10.334;2022-11-21T07:25:53;6.51;75.03
28175;SHT30;59417;44.788;10.334;2022-11-21T07:28:19;6.67;74.27
28175;SHT30;59417;44.788;10.334;2022-11-21T07:30:45;6.75;74.08
28175;SHT30;59417;44.788;10.334;2022-11-21T07:33:10;6.73;73.46
28175;SHT30;59417;44.788;10.334;2022-11-21T07:35:36;6.81;73.49
28175;SHT30;59417;44.788;10.334;2022-11-21T07:38:02;6.91;73.00
28175;SHT30;59417;44.788;10.334;2022-11-21T07:40:29;7.02;72.84
28175;SHT30;59417;44.788;10.334;2022-11-21T07:43:04;7.14;72.21
28175;SHT30;59417;44.788;10.334;2022-11-21T07:45:31;7.14;72.30
28175;SHT30;59417;44.788;10.334;2022-11-21T07:48:02;7.27;71.31
28175;SHT30;59417;44.788;10.334;2022-11-21T07:50:28;7.30;72.50
28175;SHT30;59417;44.788;10.334;2022-11-21T07:52:58;7.46;73.76
28175;SHT30;59417;44.788;10.334;2022-11-21T07:55:24;7.56;73.06
28175;SHT30;59417;44.788;10.334;2022-11-21T07:58:01;7.67;73.20
28175;SHT30;59417;44.788;10.334;2022-11-21T08:00:28;7.71;72.81
28175;SHT30;59417;44.788;10.334;2022-11-21T08:02:54;7.83;73.14
28175;SHT30;59417;44.788;10.334;2022-11-21T08:05:20;7.88;73.11
28175;SHT30;59417;44.788;10.334;2022-11-21T08:07:46;7.91;72.35
28175;SHT30;59417;44.788;10.334;2022-11-21T08:10:11;8.01;71.66
28175;SHT30;59417;44.788;10.334;2022-11-21T08:12:37;8.04;71.67
28175;SHT30;59417;44.788;10.334;2022-11-21T08:15:03;8.08;71.79
28175;SHT30;59417;44.788;10.334;2022-11-21T08:17:31;8.20;71.14
28175;SHT30;59417;44.788;10.334;2022-11-21T08:19:57;8.26;70.85
28175;SHT30;59417;44.788;10.334;2022-11-21T08:22:25;8.38;69.02
28175;SHT30;59417;44.788;10.334;2022-11-21T08:24:50;8.38;69.23
28175;SHT30;59417;44.788;10.334;2022-11-21T08:27:19;8.54;68.73
28175;SHT30;59417;44.788;10.334;2022-11-21T08:29:46;8.67;68.00
28175;SHT30;59417;44.788;10.334;2022-11-21T08:32:12;8.77;67.50
28175;SHT30;59417;44.788;10.334;2022-11-21T08:34:38;8.52;63.98
28175;SHT30;59417;44.788;10.334;2022-11-21T08:37:04;8.39;65.97
28175;SHT30;59417;44.788;10.334;2022-11-21T08:39:30;8.38;64.53
28175;SHT30;59417;44.788;10.334;2022-11-21T08:41:56;8.46;64.72
28175;SHT30;59417;44.788;10.334;2022-11-21T08:44:29;8.50;64.20
28175;SHT30;59417;44.788;10.334;2022-11-21T08:46:55;8.49;64.09
28175;SHT30;59417;44.788;10.334;2022-11-21T08:49:21;8.46;66.00
28175;SHT30;59417;44.788;10.334;2022-11-21T08:51:48;8.36;64.44
28175;SHT30;59417;44.788;10.334;2022-11-21T08:54:15;8.26;64.93
28175;SHT30;59417;44.788;10.334;2022-11-21T08:56:41;8.25;65.35
28175;SHT30;59417;44.788;10.334;2022-11-21T08:59:07;8.35;66.70
28175;SHT30;59417;44.788;10.334;2022-11-21T09:01:32;8.57;65.54
28175;SHT30;59417;44.788;10.334;2022-11-21T09:03:58;8.69;65.79
28175;SHT30;59417;44.788;10.334;2022-11-21T09:06:23;8.83;65.44
28175;SHT30;59417;44.788;10.334;2022-11-21T09:08:49;8.81;65.34
28175;SHT30;59417;44.788;10.334;2022-11-21T09:11:16;8.90;66.21
28175;SHT30;59417;44.788;10.334;2022-11-21T09:13:41;9.00;64.98
28175;SHT30;59417;44.788;10.334;2022-11-21T09:16:10;8.96;65.01
28175;SHT30;59417;44.788;10.334;2022-11-21T09:18:55;9.00;65.99
28175;SHT30;59417;44.788;10.334;2022-11-21T09:21:20;9.10;64.18
28175;SHT30;59417;44.788;10.334;2022-11-21T09:23:46;9.08;63.35
28175;SHT30;59417;44.788;10.334;2022-11-21T09:26:12;8.99;64.06
28175;SHT30;59417;44.788;10.334;2022-11-21T09:28:39;8.96;63.93
28175;SHT30;59417;44.788;10.334;2022-11-21T09:31:05;8.96;64.90
28175;SHT30;59417;44.788;10.334;2022-11-21T09:33:31;9.08;65.95
28175;SHT30;59417;44.788;10.334;2022-11-21T09:35:58;9.17;64.01
28175;SHT30;59417;44.788;10.334;2022-11-21T09:38:25;9.15;63.97
28175;SHT30;59417;44.788;10.334;2022-11-21T09:46:46;9.38;63.82
28175;SHT30;59417;44.788;10.334;2022-11-21T09:49:15;9.47;63.86
28175;SHT30;59417;44.788;10.334;2022-11-21T09:51:43;9.62;64.99
28175;SHT30;59417;44.788;10.334;2022-11-21T09:54:17;9.63;64.32
28175;SHT30;59417;44.788;10.334;2022-11-21T09:56:46;9.85;63.13
28175;SHT30;59417;44.788;10.334;2022-11-21T09:59:34;9.83;62.81
28175;SHT30;59417;44.788;10.334;2022-11-21T10:02:06;9.98;64.27
28175;SHT30;59417;44.788;10.334;2022-11-21T10:04:35;10.02;63.77
28175;SHT30;59417;44.788;10.334;2022-11-21T10:07:14;10.05;63.79
28175;SHT30;59417;44.788;10.334;2022-11-21T10:09:48;10.06;64.36
28175;SHT30;59417;44.788;10.334;2022-11-21T10:15:22;10.50;62.95
28175;SHT30;59417;44.788;10.334;2022-11-21T10:21:10;10.80;63.80
28175;SHT30;59417;44.788;10.334;2022-11-21T10:23:58;10.95;62.22
28175;SHT30;59417;44.788;10.334;2022-11-21T10:26:53;11.05;61.48
28175;SHT30;59417;44.788;10.334;2022-11-21T10:29:24;11.13;61.11
28175;SHT30;59417;44.788;10.334;2022-11-21T10:31:55;11.32;58.38
28175;SHT30;59417;44.788;10.334;2022-11-21T10:34:25;11.40;59.49
28175;SHT30;59417;44.788;10.334;2022-11-21T10:37:02;11.69;59.80
28175;SHT30;59417;44.788;10.334;2022-11-21T10:39:43;11.81;58.56
28175;SHT30;59417;44.788;10.334;2022-11-21T10:45:17;12.04;57.41
28175;SHT30;59417;44.788;10.334;2022-11-21T10:47:48;12.28;58.14
28175;SHT30;59417;44.788;10.334;2022-11-21T10:58:49;12.46;57.77
28175;SHT30;59417;44.788;10.334;2022-11-21T11:04:16;12.68;58.19
28175;SHT30;59417;44.788;10.334;2022-11-21T11:06:44;12.68;58.62
28175;SHT30;59417;44.788;10.334;2022-11-21T11:09:32;12.69;57.11
28175;SHT30;59417;44.788;10.334;2022-11-21T11:14:54;12.77;57.48
28175;SHT30;59417;44.788;10.334;2022-11-21T11:17:31;12.87;57.75
28175;SHT30;59417;44.788;10.334;2022-11-21T11:20:12;12.87;57.73
28175;SHT30;59417;44.788;10.334;2022-11-21T11:22:51;12.75;57.75
28175;SHT30;59417;44.788;10.334;2022-11-21T11:25:17;12.68;58.79
28175;SHT30;59417;44.788;10.334;2022-11-21T11:27:43;12.83;59.33
28175;SHT30;59417;44.788;10.334;2022-11-21T11:30:14;12.87;60.01
28175;SHT30;59417;44.788;10.334;2022-11-21T11:32:40;12.95;60.18
28175;SHT30;59417;44.788;10.334;2022-11-21T11:37:39;13.11;59.41
28175;SHT30;59417;44.788;10.334;2022-11-21T11:40:27;13.23;59.01
28175;SHT30;59417;44.788;10.334;2022-11-21T11:49:07;13.10;56.99
28175;SHT30;59417;44.788;10.334;2022-11-21T11:51:39;13.09;56.51
28175;SHT30;59417;44.788;10.334;2022-11-21T11:54:16;13.10;55.29
28175;SHT30;59417;44.788;10.334;2022-11-21T11:56:44;13.11;55.75
28175;SHT30;59417;44.788;10.334;2022-11-21T11:59:27;13.20;55.98
28175;SHT30;59417;44.788;10.334;2022-11-21T12:02:00;13.31;56.05
28175;SHT30;59417;44.788;10.334;2022-11-21T12:04:35;13.30;52.57
28175;SHT30;59417;44.788;10.334;2022-11-21T12:07:20;13.02;53.01
28175;SHT30;59417;44.788;10.334;2022-11-21T12:09:55;12.92;51.20
28175;SHT30;59417;44.788;10.334;2022-11-21T12:12:41;12.63;52.34
28175;SHT30;59417;44.788;10.334;2022-11-21T12:15:24;12.62;54.69
28175;SHT30;59417;44.788;10.334;2022-11-21T12:20:57;12.82;55.25
28175;SHT30;59417;44.788;10.334;2022-11-21T12:29:23;12.97;53.86
28175;SHT30;59417;44.788;10.334;2022-11-21T12:35:06;13.10;54.06
28175;SHT30;59417;44.788;10.334;2022-11-21T12:52:12;12.87;54.96
28175;SHT30;59417;44.788;10.334;2022-11-21T13:00:17;13.13;55.00
28175;SHT30;59417;44.788;10.334;2022-11-21T13:05:25;13.30;52.35
28175;SHT30;59417;44.788;10.334;2022-11-21T13:07:58;13.28;52.95
28175;SHT30;59417;44.788;10.334;2022-11-21T13:10:25;13.28;53.24
28175;SHT30;59417;44.788;10.334;2022-11-21T13:15:52;13.40;52.81
28175;SHT30;59417;44.788;10.334;2022-11-21T13:18:40;13.51;51.30
28175;SHT30;59417;44.788;10.334;2022-11-21T13:21:44;13.53;53.18
28175;SHT30;59417;44.788;10.334;2022-11-21T13:45:46;13.31;54.50
28175;SHT30;59417;44.788;10.334;2022-11-21T14:08:24;12.72;57.63
28175;SHT30;59417;44.788;10.334;2022-11-21T14:10:54;12.65;58.55
28175;SHT30;59417;44.788;10.334;2022-11-21T14:13:27;12.63;58.28
28175;SHT30;59417;44.788;10.334;2022-11-21T14:18:24;12.55;58.17
28175;SHT30;59417;44.788;10.334;2022-11-21T14:20:54;12.44;58.73
28175;SHT30;59417;44.788;10.334;2022-11-21T14:23:24;12.49;60.14
28175;SHT30;59417;44.788;10.334;2022-11-21T14:26:00;12.52;59.27
28175;SHT30;59417;44.788;10.334;2022-11-21T14:28:32;12.45;59.05
28175;SHT30;59417;44.788;10.334;2022-11-21T14:31:06;12.37;59.08
28175;SHT30;59417;44.788;10.334;2022-11-21T14:33:34;12.44;59.85
28175;SHT30;59417;44.788;10.334;2022-11-21T14:36:19;12.35;60.52
28175;SHT30;59417;44.788;10.334;2022-11-21T14:38:48;12.29;61.11
28175;SHT30;59417;44.788;10.334;2022-11-21T14:41:26;12.25;61.70
28175;SHT30;59417;44.788;10.334;2022-11-21T14:46:35;12.25;61.90
28175;SHT30;59417;44.788;10.334;2022-11-21T14:49:22;12.27;62.57
28175;SHT30;59417;44.788;10.334;2022-11-21T14:54:32;12.21;61.79
28175;SHT30;59417;44.788;10.334;2022-11-21T14:57:02;12.25;62.72
28175;SHT30;59417;44.788;10.334;2022-11-21T14:59:40;12.18;62.19
28175;SHT30;59417;44.788;10.334;2022-11-21T15:02:16;12.22;62.87
28175;SHT30;59417;44.788;10.334;2022-11-21T15:04:43;12.28;62.71
28175;SHT30;59417;44.788;10.334;2022-11-21T15:07:41;12.18;62.94
28175;SHT30;59417;44.788;10.334;2022-11-21T15:10:11;12.11;63.61
28175;SHT30;59417;44.788;10.334;2022-11-21T15:17:56;12.11;64.01
28175;SHT30;59417;44.788;10.334;2022-11-21T15:20:22;12.05;64.30
28175;SHT30;59417;44.788;10.334;2022-11-21T15:22:59;12.01;63.52
28175;SHT30;59417;44.788;10.334;2022-11-21T15:25:28;11.97;63.55
28175;SHT30;59417;44.788;10.334;2022-11-21T15:30:34;11.88;63.91
28175;SHT30;59417;44.788;10.334;2022-11-21T15:33:10;11.90;64.20
28175;SHT30;59417;44.788;10.334;2022-11-21T15:35:40;11.86;64.04
28175;SHT30;59417;44.788;10.334;2022-11-21T15:38:29;11.87;64.26
28175;SHT30;59417;44.788;10.334;2022-11-21T15:43:39;11.77;64.59
28175;SHT30;59417;44.788;10.334;2022-11-21T15:46:21;11.70;64.64
28175;SHT30;59417;44.788;10.334;2022-11-21T15:49:02;11.74;64.88
28175;SHT30;59417;44.788;10.334;2022-11-21T15:53:58;11.69;65.50
28175;SHT30;59417;44.788;10.334;2022-11-21T15:56:27;11.63;65.84
28175;SHT30;59417;44.788;10.334;2022-11-21T15:58:53;11.53;65.86
28175;SHT30;59417;44.788;10.334;2022-11-21T16:01:23;11.52;65.58
28175;SHT30;59417;44.788;10.334;2022-11-21T16:03:59;11.66;65.61
28175;SHT30;59417;44.788;10.334;2022-11-21T16:06:26;11.46;65.58
28175;SHT30;59417;44.788;10.334;2022-11-21T16:08:52;11.32;66.90
28175;SHT30;59417;44.788;10.334;2022-11-21T16:11:22;11.29;67.19
28175;SHT30;59417;44.788;10.334;2022-11-21T16:13:49;11.18;67.37
28175;SHT30;59417;44.788;10.334;2022-11-21T16:16:16;11.20;67.63
28175;SHT30;59417;44.788;10.334;2022-11-21T16:18:42;11.23;67.34
28175;SHT30;59417;44.788;10.334;2022-11-21T16:21:08;11.20;67.91
28175;SHT30;59417;44.788;10.334;2022-11-21T16:23:35;11.19;67.47
28175;SHT30;59417;44.788;10.334;2022-11-21T16:26:05;11.19;67.76
28175;SHT30;59417;44.788;10.334;2022-11-21T16:28:35;11.18;67.61
28175;SHT30;59417;44.788;10.334;2022-11-21T16:31:05;11.18;67.68
28175;SHT30;59417;44.788;10.334;2022-11-21T16:33:34;11.23;67.88
28175;SHT30;59417;44.788;10.334;2022-11-21T16:36:05;11.29;67.98
28175;SHT30;59417;44.788;10.334;2022-11-21T16:38:36;11.30;68.13
28175;SHT30;59417;44.788;10.334;2022-11-21T16:41:03;11.33;68.17
28175;SHT30;59417;44.788;10.334;2022-11-21T16:43:30;11.42;68.25
28175;SHT30;59417;44.788;10.334;2022-11-21T16:46:05;11.43;68.75
28175;SHT30;59417;44.788;10.334;2022-11-21T16:48:31;11.39;68.80
28175;SHT30;59417;44.788;10.334;2022-11-21T16:51:17;11.39;69.33
28175;SHT30;59417;44.788;10.334;2022-11-21T16:53:47;11.40;69.65
28175;SHT30;59417;44.788;10.334;2022-11-21T16:56:14;11.27;70.15
28175;SHT30;59417;44.788;10.334;2022-11-21T16:58:40;11.33;70.42
28175;SHT30;59417;44.788;10.334;2022-11-21T17:01:14;11.33;70.52
28175;SHT30;59417;44.788;10.334;2022-11-21T17:03:43;11.32;70.94
28175;SHT30;59417;44.788;10.334;2022-11-21T17:06:11;11.36;71.31
28175;SHT30;59417;44.788;10.334;2022-11-21T17:08:38;11.38;71.24
28175;SHT30;59417;44.788;10.334;2022-11-21T17:11:12;11.22;71.77
28175;SHT30;59417;44.788;10.334;2022-11-21T17:13:40;11.27;71.62
28175;SHT30;59417;44.788;10.334;2022-11-21T17:16:06;11.26;71.88
28175;SHT30;59417;44.788;10.334;2022-11-21T17:18:32;11.27;71.86
28175;SHT30;59417;44.788;10.334;2022-11-21T17:21:01;11.25;72.01
28175;SHT30;59417;44.788;10.334;2022-11-21T17:23:30;11.20;72.19
28175;SHT30;59417;44.788;10.334;2022-11-21T17:26:09;11.36;72.21
28175;SHT30;59417;44.788;10.334;2022-11-21T17:28:35;11.30;72.16
28175;SHT30;59417;44.788;10.334;2022-11-21T17:31:09;11.35;72.12
28175;SHT30;59417;44.788;10.334;2022-11-21T17:33:35;11.32;72.02
28175;SHT30;59417;44.788;10.334;2022-11-21T17:36:03;11.33;72.31
28175;SHT30;59417;44.788;10.334;2022-11-21T17:38:29;11.38;72.25
28175;SHT30;59417;44.788;10.334;2022-11-21T17:41:19;11.39;72.26
28175;SHT30;59417;44.788;10.334;2022-11-21T17:43:48;11.40;72.41
28175;SHT30;59417;44.788;10.334;2022-11-21T17:46:17;11.39;72.61
28175;SHT30;59417;44.788;10.334;2022-11-21T17:48:45;11.40;72.66
28175;SHT30;59417;44.788;10.334;2022-11-21T17:51:17;11.40;72.59
28175;SHT30;59417;44.788;10.334;2022-11-21T17:53:46;11.40;72.81
28175;SHT30;59417;44.788;10.334;2022-11-21T17:56:18;11.39;73.11
28175;SHT30;59417;44.788;10.334;2022-11-21T17:58:44;11.30;73.29
28175;SHT30;59417;44.788;10.334;2022-11-21T18:01:10;11.38;73.74
28175;SHT30;59417;44.788;10.334;2022-11-21T18:04:00;11.33;74.09
28175;SHT30;59417;44.788;10.334;2022-11-21T18:06:36;11.26;74.50
28175;SHT30;59417;44.788;10.334;2022-11-21T18:09:03;11.25;74.73
28175;SHT30;59417;44.788;10.334;2022-11-21T18:11:32;11.39;74.26